sensor_id;sensor_type;location;lat;lon;timestamp;temperature;humidity
674;DHT22;319;48.764;9.174;2023-12-20T00:00:59;8.50;99.90
674;DHT22;319;48.764;9.174;2023-12-20T00:03:26;8.50;99.90
674;DHT22;319;48.764;9.174;2023-12-20T00:05:53;8.50;99.90
674;DHT22;319;48.764;9.174;2023-12-20T00:08:21;8.50;99.90
674;DHT22;319;48.764;9.174;2023-12-20T00:10:49;8.50;99.90
674;DHT22;319;48.764;9.174;2023-12-20T00:13:15;8.50;99.90
674;DHT22;319;48.764;9.174;2023-12-20T00:15:42;8.50;99.90
674;DHT22;319;48.764;9.174;2023-12-20T00:18:09;8.60;99.90
674;DHT22;319;48.764;9.174;2023-12-20T00:20:35;8.50;99.90
674;DHT22;319;48.764;9.174;2023-12-20T00:23:02;8.60;99.90
674;DHT22;319;48.764;9.174;2023-12-20T00:25:29;8.60;99.90
674;DHT22;319;48.764;9.174;2023-12-20T00:27:57;8.60;99.90
674;DHT22;319;48.764;9.174;2023-12-20T00:30:24;8.50;99.90
674;DHT22;319;48.764;9.174;2023-12-20T00:32:50;8.60;99.90
674;DHT22;319;48.764;9.174;2023-12-20T00:35:19;8.60;99.90
674;DHT22;319;48.764;9.174;2023-12-20T00:37:45;8.60;99.90
674;DHT22;319;48.764;9.174;2023-12-20T00:40:12;8.60;99.90
674;DHT22;319;48.764;9.174;2023-12-20T00:42:39;8.60;99.90
674;DHT22;319;48.764;9.174;2023-12-20T00:45:07;8.50;99.90
674;DHT22;319;48.764;9.174;2023-12-20T00:47:34;8.50;99.90
674;DHT22;319;48.764;9.174;2023-12-20T00:50:01;8.50;99.90
674;DHT22;319;48.764;9.174;2023-12-20T00:52:28;8.40;99.90
674;DHT22;319;48.764;9.174;2023-12-20T00:54:55;8.50;99.90
674;DHT22;319;48.764;9.174;2023-12-20T00:57:22;8.50;99.90
674;DHT22;319;48.764;9.174;2023-12-20T00:59:49;8.40;99.90
674;DHT22;319;48.764;9.174;2023-12-20T01:02:17;8.40;99.90
674;DHT22;319;48.764;9.174;2023-12-20T01:04:44;8.40;99.90
674;DHT22;319;48.764;9.174;2023-12-20T01:07:10;8.30;99.90
674;DHT22;319;48.764;9.174;2023-12-20T01:09:38;8.40;99.90
674;DHT22;319;48.764;9.174;2023-12-20T01:12:05;8.40;99.90
674;DHT22;319;48.764;9.174;2023-12-20T01:14:31;8.40;99.90
674;DHT22;319;48.764;9.174;2023-12-20T01:16:59;8.40;99.90
674;DHT22;319;48.764;9.174;2023-12-20T01:19:27;8.50;99.90
674;DHT22;319;48.764;9.174;2023-12-20T01:21:54;8.50;99.90
674;DHT22;319;48.764;9.174;2023-12-20T01:24:22;8.50;99.90
674;DHT22;319;48.764;9.174;2023-12-20T01:26:48;8.50;99.90
674;DHT22;319;48.764;9.174;2023-12-20T01:29:15;8.50;99.90
674;DHT22;319;48.764;9.174;2023-12-20T01:31:42;8.50;99.90
674;DHT22;319;48.764;9.174;2023-12-20T01:34:08;8.40;99.90
674;DHT22;319;48.764;9.174;2023-12-20T01:36:36;8.40;99.90
674;DHT22;319;48.764;9.174;2023-12-20T01:39:03;8.40;99.90
674;DHT22;319;48.764;9.174;2023-12-20T01:41:30;8.40;99.90
674;DHT22;319;48.764;9.174;2023-12-20T01:43:56;8.30;99.90
674;DHT22;319;48.764;9.174;2023-12-20T01:46:23;8.30;99.90
674;DHT22;319;48.764;9.174;2023-12-20T01:48:51;8.40;99.90
674;DHT22;319;48.764;9.174;2023-12-20T01:51:18;8.40;99.90
674;DHT22;319;48.764;9.174;2023-12-20T01:53:47;8.40;99.90
674;DHT22;319;48.764;9.174;2023-12-20T01:56:14;8.40;99.90
674;DHT22;319;48.764;9.174;2023-12-20T01:58:43;8.40;99.90
674;DHT22;319;48.764;9.174;2023-12-20T02:01:11;8.40;99.90
674;DHT22;319;48.764;9.174;2023-12-20T02:03:38;8.40;99.90
674;DHT22;319;48.764;9.174;2023-12-20T02:06:04;8.30;99.90
674;DHT22;319;48.764;9.174;2023-12-20T02:08:31;8.40;99.90
674;DHT22;319;48.764;9.174;2023-12-20T02:11:00;8.30;99.90
674;DHT22;319;48.764;9.174;2023-12-20T02:13:26;8.40;99.90
674;DHT22;319;48.764;9.174;2023-12-20T02:15:54;8.30;99.90
674;DHT22;319;48.764;9.174;2023-12-20T02:18:21;8.30;99.90
674;DHT22;319;48.764;9.174;2023-12-20T02:20:47;8.40;99.90
674;DHT22;319;48.764;9.174;2023-12-20T02:23:15;8.40;99.90
674;DHT22;319;48.764;9.174;2023-12-20T02:25:42;8.40;99.90
674;DHT22;319;48.764;9.174;2023-12-20T02:28:09;8.40;99.90
674;DHT22;319;48.764;9.174;2023-12-20T02:30:36;8.50;99.90
674;DHT22;319;48.764;9.174;2023-12-20T02:35:31;8.60;99.90
674;DHT22;319;48.764;9.174;2023-12-20T02:37:58;8.60;99.90
674;DHT22;319;48.764;9.174;2023-12-20T02:40:27;8.70;99.90
674;DHT22;319;48.764;9.174;2023-12-20T02:42:54;8.60;99.90
674;DHT22;319;48.764;9.174;2023-12-20T02:45:20;8.60;99.90
674;DHT22;319;48.764;9.174;2023-12-20T02:47:47;8.60;99.90
674;DHT22;319;48.764;9.174;2023-12-20T02:50:14;8.70;99.90
674;DHT22;319;48.764;9.174;2023-12-20T02:52:44;8.60;99.90
674;DHT22;319;48.764;9.174;2023-12-20T02:55:11;8.70;99.90
674;DHT22;319;48.764;9.174;2023-12-20T02:57:39;8.70;99.90
674;DHT22;319;48.764;9.174;2023-12-20T03:00:08;8.70;99.90
674;DHT22;319;48.764;9.174;2023-12-20T03:02:35;8.70;99.90
674;DHT22;319;48.764;9.174;2023-12-20T03:05:01;8.70;99.90
674;DHT22;319;48.764;9.174;2023-12-20T03:07:28;8.70;99.90
674;DHT22;319;48.764;9.174;2023-12-20T03:09:55;8.70;99.90
674;DHT22;319;48.764;9.174;2023-12-20T03:12:22;8.70;99.90
674;DHT22;319;48.764;9.174;2023-12-20T03:14:50;8.70;99.90
674;DHT22;319;48.764;9.174;2023-12-20T03:17:16;8.70;99.90
674;DHT22;319;48.764;9.174;2023-12-20T03:19:42;8.70;99.90
674;DHT22;319;48.764;9.174;2023-12-20T03:22:09;8.70;99.90
674;DHT22;319;48.764;9.174;2023-12-20T03:24:36;8.60;99.90
674;DHT22;319;48.764;9.174;2023-12-20T03:27:03;8.60;99.90
674;DHT22;319;48.764;9.174;2023-12-20T03:29:30;8.60;99.90
674;DHT22;319;48.764;9.174;2023-12-20T03:31:58;8.60;99.90
674;DHT22;319;48.764;9.174;2023-12-20T03:34:25;8.60;99.90
674;DHT22;319;48.764;9.174;2023-12-20T03:36:51;8.50;99.90
674;DHT22;319;48.764;9.174;2023-12-20T03:39:18;8.50;99.90
674;DHT22;319;48.764;9.174;2023-12-20T03:41:45;8.50;99.90
674;DHT22;319;48.764;9.174;2023-12-20T03:44:12;8.50;99.90
674;DHT22;319;48.764;9.174;2023-12-20T03:46:38;8.50;99.90
674;DHT22;319;48.764;9.174;2023-12-20T03:49:06;8.50;99.90
674;DHT22;319;48.764;9.174;2023-12-20T03:51:33;8.50;99.90
674;DHT22;319;48.764;9.174;2023-12-20T03:54:00;8.60;99.90
674;DHT22;319;48.764;9.174;2023-12-20T03:56:27;8.50;99.90
674;DHT22;319;48.764;9.174;2023-12-20T03:58:54;8.50;99.90
674;DHT22;319;48.764;9.174;2023-12-20T04:01:20;8.40;99.90
674;DHT22;319;48.764;9.174;2023-12-20T04:03:47;8.50;99.90
674;DHT22;319;48.764;9.174;2023-12-20T04:06:18;8.50;99.90
674;DHT22;319;48.764;9.174;2023-12-20T04:08:45;8.50;99.90
674;DHT22;319;48.764;9.174;2023-12-20T04:11:11;8.50;99.90
674;DHT22;319;48.764;9.174;2023-12-20T04:13:38;8.50;99.90
674;DHT22;319;48.764;9.174;2023-12-20T04:16:06;8.50;99.90
674;DHT22;319;48.764;9.174;2023-12-20T04:18:32;8.40;99.90
674;DHT22;319;48.764;9.174;2023-12-20T04:20:59;8.40;99.90
674;DHT22;319;48.764;9.174;2023-12-20T04:23:27;8.40;99.90
674;DHT22;319;48.764;9.174;2023-12-20T04:25:54;8.20;99.90
674;DHT22;319;48.764;9.174;2023-12-20T04:28:22;8.30;99.90
674;DHT22;319;48.764;9.174;2023-12-20T04:30:49;8.30;99.90
674;DHT22;319;48.764;9.174;2023-12-20T04:33:15;8.30;99.90
674;DHT22;319;48.764;9.174;2023-12-20T04:35:42;8.30;99.90
674;DHT22;319;48.764;9.174;2023-12-20T04:38:11;8.30;99.90
674;DHT22;319;48.764;9.174;2023-12-20T04:40:39;8.30;99.90
674;DHT22;319;48.764;9.174;2023-12-20T04:43:06;8.20;99.90
674;DHT22;319;48.764;9.174;2023-12-20T04:45:34;8.20;99.90
674;DHT22;319;48.764;9.174;2023-12-20T04:48:01;8.20;99.90
674;DHT22;319;48.764;9.174;2023-12-20T04:50:28;8.20;99.90
674;DHT22;319;48.764;9.174;2023-12-20T04:52:55;8.10;99.90
674;DHT22;319;48.764;9.174;2023-12-20T04:55:22;8.00;99.90
674;DHT22;319;48.764;9.174;2023-12-20T04:57:50;8.00;99.90
674;DHT22;319;48.764;9.174;2023-12-20T05:00:17;8.00;99.90
674;DHT22;319;48.764;9.174;2023-12-20T05:02:44;8.00;99.90
674;DHT22;319;48.764;9.174;2023-12-20T05:05:11;7.90;99.90
674;DHT22;319;48.764;9.174;2023-12-20T05:07:38;7.90;99.90
674;DHT22;319;48.764;9.174;2023-12-20T05:10:06;8.00;99.90
674;DHT22;319;48.764;9.174;2023-12-20T05:12:33;8.00;99.90
674;DHT22;319;48.764;9.174;2023-12-20T05:15:02;8.00;99.90
674;DHT22;319;48.764;9.174;2023-12-20T05:17:28;7.90;99.90
674;DHT22;319;48.764;9.174;2023-12-20T05:19:55;8.00;99.90
674;DHT22;319;48.764;9.174;2023-12-20T05:22:22;8.00;99.90
674;DHT22;319;48.764;9.174;2023-12-20T05:24:49;8.00;99.90
674;DHT22;319;48.764;9.174;2023-12-20T05:27:16;8.00;99.90
674;DHT22;319;48.764;9.174;2023-12-20T05:29:42;8.00;99.90
674;DHT22;319;48.764;9.174;2023-12-20T05:32:11;8.00;99.90
674;DHT22;319;48.764;9.174;2023-12-20T05:34:37;7.90;99.90
674;DHT22;319;48.764;9.174;2023-12-20T05:37:04;7.90;99.90
674;DHT22;319;48.764;9.174;2023-12-20T05:39:31;7.90;99.90
674;DHT22;319;48.764;9.174;2023-12-20T05:41:58;7.90;99.90
674;DHT22;319;48.764;9.174;2023-12-20T05:44:25;7.90;99.90
674;DHT22;319;48.764;9.174;2023-12-20T05:46:52;8.00;99.90
674;DHT22;319;48.764;9.174;2023-12-20T05:49:20;7.90;99.90
674;DHT22;319;48.764;9.174;2023-12-20T05:51:47;7.90;99.90
674;DHT22;319;48.764;9.174;2023-12-20T05:54:14;7.80;99.90
674;DHT22;319;48.764;9.174;2023-12-20T05:56:40;7.80;99.90
674;DHT22;319;48.764;9.174;2023-12-20T05:59:07;7.80;99.90
674;DHT22;319;48.764;9.174;2023-12-20T06:01:34;7.80;99.90
674;DHT22;319;48.764;9.174;2023-12-20T06:04:01;7.90;99.90
674;DHT22;319;48.764;9.174;2023-12-20T06:06:30;7.80;99.90
674;DHT22;319;48.764;9.174;2023-12-20T06:08:57;7.80;99.90
674;DHT22;319;48.764;9.174;2023-12-20T06:11:24;7.80;99.90
674;DHT22;319;48.764;9.174;2023-12-20T06:13:51;7.80;99.90
674;DHT22;319;48.764;9.174;2023-12-20T06:16:18;7.80;99.90
674;DHT22;319;48.764;9.174;2023-12-20T06:18:45;7.80;99.90
674;DHT22;319;48.764;9.174;2023-12-20T06:21:12;7.80;99.90
674;DHT22;319;48.764;9.174;2023-12-20T06:23:41;7.90;99.90
674;DHT22;319;48.764;9.174;2023-12-20T06:26:08;7.90;99.90
674;DHT22;319;48.764;9.174;2023-12-20T06:28:35;8.00;99.90
674;DHT22;319;48.764;9.174;2023-12-20T06:31:01;8.00;99.90
674;DHT22;319;48.764;9.174;2023-12-20T06:33:29;8.10;99.90
674;DHT22;319;48.764;9.174;2023-12-20T06:35:56;8.10;99.90
674;DHT22;319;48.764;9.174;2023-12-20T06:38:23;8.00;99.90
674;DHT22;319;48.764;9.174;2023-12-20T06:40:51;8.10;99.90
674;DHT22;319;48.764;9.174;2023-12-20T06:43:18;8.10;99.90
674;DHT22;319;48.764;9.174;2023-12-20T06:45:45;8.10;99.90
674;DHT22;319;48.764;9.174;2023-12-20T06:48:11;8.10;99.90
674;DHT22;319;48.764;9.174;2023-12-20T06:50:39;8.10;99.90
674;DHT22;319;48.764;9.174;2023-12-20T06:53:06;8.10;99.90
674;DHT22;319;48.764;9.174;2023-12-20T06:55:33;8.00;99.90
674;DHT22;319;48.764;9.174;2023-12-20T06:58:02;8.00;99.90
674;DHT22;319;48.764;9.174;2023-12-20T07:00:31;8.00;99.90
674;DHT22;319;48.764;9.174;2023-12-20T07:02:59;8.00;99.90
674;DHT22;319;48.764;9.174;2023-12-20T07:05:25;8.10;99.90
674;DHT22;319;48.764;9.174;2023-12-20T07:07:52;8.20;99.90
674;DHT22;319;48.764;9.174;2023-12-20T07:10:19;8.20;99.90
674;DHT22;319;48.764;9.174;2023-12-20T07:12:46;8.20;99.90
674;DHT22;319;48.764;9.174;2023-12-20T07:15:15;8.20;99.90
674;DHT22;319;48.764;9.174;2023-12-20T07:17:42;8.20;99.90
674;DHT22;319;48.764;9.174;2023-12-20T07:20:10;8.30;99.90
674;DHT22;319;48.764;9.174;2023-12-20T07:22:37;8.40;99.90
674;DHT22;319;48.764;9.174;2023-12-20T07:25:05;8.30;99.90
674;DHT22;319;48.764;9.174;2023-12-20T07:27:32;8.30;99.90
674;DHT22;319;48.764;9.174;2023-12-20T07:29:59;8.30;99.90
674;DHT22;319;48.764;9.174;2023-12-20T07:32:27;8.30;99.90
674;DHT22;319;48.764;9.174;2023-12-20T07:34:57;8.20;99.90
674;DHT22;319;48.764;9.174;2023-12-20T07:37:26;8.30;99.90
674;DHT22;319;48.764;9.174;2023-12-20T07:40:02;8.30;99.90
674;DHT22;319;48.764;9.174;2023-12-20T07:42:42;8.30;99.90
674;DHT22;319;48.764;9.174;2023-12-20T07:45:12;8.30;99.90
674;DHT22;319;48.764;9.174;2023-12-20T07:47:41;8.30;99.90
674;DHT22;319;48.764;9.174;2023-12-20T07:50:09;8.20;99.90
674;DHT22;319;48.764;9.174;2023-12-20T07:52:36;8.10;99.90
674;DHT22;319;48.764;9.174;2023-12-20T07:55:03;8.10;99.90
674;DHT22;319;48.764;9.174;2023-12-20T07:57:30;8.10;99.90
674;DHT22;319;48.764;9.174;2023-12-20T07:59:57;8.00;99.90
674;DHT22;319;48.764;9.174;2023-12-20T08:02:24;8.00;99.90
674;DHT22;319;48.764;9.174;2023-12-20T08:04:52;7.90;99.90
674;DHT22;319;48.764;9.174;2023-12-20T08:07:19;8.00;99.90
674;DHT22;319;48.764;9.174;2023-12-20T08:09:46;7.90;99.90
674;DHT22;319;48.764;9.174;2023-12-20T08:12:13;7.90;99.90
674;DHT22;319;48.764;9.174;2023-12-20T08:14:39;7.90;99.90
674;DHT22;319;48.764;9.174;2023-12-20T08:17:06;7.90;99.90
674;DHT22;319;48.764;9.174;2023-12-20T08:19:33;7.80;99.90
674;DHT22;319;48.764;9.174;2023-12-20T08:22:01;7.80;99.90
674;DHT22;319;48.764;9.174;2023-12-20T08:24:28;7.80;99.90
674;DHT22;319;48.764;9.174;2023-12-20T08:26:56;7.70;99.90
674;DHT22;319;48.764;9.174;2023-12-20T08:29:22;7.70;99.90
674;DHT22;319;48.764;9.174;2023-12-20T08:31:52;7.70;99.90
674;DHT22;319;48.764;9.174;2023-12-20T08:34:19;7.70;99.90
674;DHT22;319;48.764;9.174;2023-12-20T08:36:46;7.50;99.90
674;DHT22;319;48.764;9.174;2023-12-20T08:39:14;7.60;99.90
674;DHT22;319;48.764;9.174;2023-12-20T08:41:40;7.60;99.90
674;DHT22;319;48.764;9.174;2023-12-20T08:44:07;7.60;99.90
674;DHT22;319;48.764;9.174;2023-12-20T08:46:34;7.60;99.90
674;DHT22;319;48.764;9.174;2023-12-20T08:49:02;7.60;99.90
674;DHT22;319;48.764;9.174;2023-12-20T08:51:28;7.70;99.90
674;DHT22;319;48.764;9.174;2023-12-20T08:53:55;7.70;99.90
674;DHT22;319;48.764;9.174;2023-12-20T08:56:23;7.70;99.90
674;DHT22;319;48.764;9.174;2023-12-20T08:58:50;7.70;99.90
674;DHT22;319;48.764;9.174;2023-12-20T09:01:17;7.70;99.90
674;DHT22;319;48.764;9.174;2023-12-20T09:03:43;7.70;99.90
674;DHT22;319;48.764;9.174;2023-12-20T09:06:10;7.80;99.90
674;DHT22;319;48.764;9.174;2023-12-20T09:08:37;7.80;99.90
674;DHT22;319;48.764;9.174;2023-12-20T09:11:04;7.90;99.90
674;DHT22;319;48.764;9.174;2023-12-20T09:13:32;8.00;99.90
674;DHT22;319;48.764;9.174;2023-12-20T09:15:58;8.20;99.90
674;DHT22;319;48.764;9.174;2023-12-20T09:18:25;8.30;99.90
674;DHT22;319;48.764;9.174;2023-12-20T09:20:52;8.50;99.90
674;DHT22;319;48.764;9.174;2023-12-20T09:23:19;8.50;99.90
674;DHT22;319;48.764;9.174;2023-12-20T09:25:46;8.60;99.90
674;DHT22;319;48.764;9.174;2023-12-20T09:28:20;8.80;99.90
674;DHT22;319;48.764;9.174;2023-12-20T09:30:48;8.70;99.90
674;DHT22;319;48.764;9.174;2023-12-20T09:33:15;8.80;99.90
674;DHT22;319;48.764;9.174;2023-12-20T09:35:42;8.90;99.90
674;DHT22;319;48.764;9.174;2023-12-20T09:38:09;8.90;99.90
674;DHT22;319;48.764;9.174;2023-12-20T09:40:36;8.90;99.90
674;DHT22;319;48.764;9.174;2023-12-20T09:43:11;8.80;99.90
674;DHT22;319;48.764;9.174;2023-12-20T09:45:39;8.80;99.90
674;DHT22;319;48.764;9.174;2023-12-20T09:48:10;8.80;99.90
674;DHT22;319;48.764;9.174;2023-12-20T09:50:37;8.80;99.90
674;DHT22;319;48.764;9.174;2023-12-20T09:53:05;8.90;99.90
674;DHT22;319;48.764;9.174;2023-12-20T09:55:35;8.90;99.90
674;DHT22;319;48.764;9.174;2023-12-20T09:58:02;8.90;99.90
674;DHT22;319;48.764;9.174;2023-12-20T10:00:30;8.80;99.90
674;DHT22;319;48.764;9.174;2023-12-20T10:02:57;8.80;99.90
674;DHT22;319;48.764;9.174;2023-12-20T10:05:28;8.90;99.90
674;DHT22;319;48.764;9.174;2023-12-20T10:07:55;8.90;99.90
674;DHT22;319;48.764;9.174;2023-12-20T10:10:22;8.80;99.90
674;DHT22;319;48.764;9.174;2023-12-20T10:13:02;8.80;99.90
674;DHT22;319;48.764;9.174;2023-12-20T10:15:29;8.80;99.90
674;DHT22;319;48.764;9.174;2023-12-20T10:17:56;8.90;99.90
674;DHT22;319;48.764;9.174;2023-12-20T10:20:23;8.90;99.90
674;DHT22;319;48.764;9.174;2023-12-20T10:22:52;8.90;99.90
674;DHT22;319;48.764;9.174;2023-12-20T10:25:20;9.00;99.90
674;DHT22;319;48.764;9.174;2023-12-20T10:27:49;9.10;99.90
674;DHT22;319;48.764;9.174;2023-12-20T10:30:16;9.20;99.60
674;DHT22;319;48.764;9.174;2023-12-20T10:32:42;9.30;99.50
674;DHT22;319;48.764;9.174;2023-12-20T10:35:09;9.30;99.40
674;DHT22;319;48.764;9.174;2023-12-20T10:37:37;9.30;99.00
674;DHT22;319;48.764;9.174;2023-12-20T10:40:06;9.30;98.80
674;DHT22;319;48.764;9.174;2023-12-20T10:42:34;9.40;99.00
674;DHT22;319;48.764;9.174;2023-12-20T10:45:03;9.20;99.30
674;DHT22;319;48.764;9.174;2023-12-20T10:47:31;9.30;99.00
674;DHT22;319;48.764;9.174;2023-12-20T10:49:59;9.30;99.00
674;DHT22;319;48.764;9.174;2023-12-20T10:52:28;9.30;98.80
674;DHT22;319;48.764;9.174;2023-12-20T10:54:58;9.20;98.70
674;DHT22;319;48.764;9.174;2023-12-20T10:57:27;9.20;99.00
674;DHT22;319;48.764;9.174;2023-12-20T10:59:56;9.30;99.80
674;DHT22;319;48.764;9.174;2023-12-20T11:02:28;9.30;99.00
674;DHT22;319;48.764;9.174;2023-12-20T11:05:01;9.30;98.80
674;DHT22;319;48.764;9.174;2023-12-20T11:07:38;9.20;98.80
674;DHT22;319;48.764;9.174;2023-12-20T11:10:13;9.20;98.80
674;DHT22;319;48.764;9.174;2023-12-20T11:12:47;9.20;99.10
674;DHT22;319;48.764;9.174;2023-12-20T11:15:16;9.30;98.50
674;DHT22;319;48.764;9.174;2023-12-20T11:17:45;9.20;98.00
674;DHT22;319;48.764;9.174;2023-12-20T11:20:12;9.20;98.20
674;DHT22;319;48.764;9.174;2023-12-20T11:22:40;9.30;98.20
674;DHT22;319;48.764;9.174;2023-12-20T11:25:18;9.40;98.10
674;DHT22;319;48.764;9.174;2023-12-20T11:28:07;9.30;97.70
674;DHT22;319;48.764;9.174;2023-12-20T11:30:41;9.20;97.40
674;DHT22;319;48.764;9.174;2023-12-20T11:33:08;9.00;97.20
674;DHT22;319;48.764;9.174;2023-12-20T11:35:35;9.00;97.40
674;DHT22;319;48.764;9.174;2023-12-20T11:38:02;8.90;97.70
674;DHT22;319;48.764;9.174;2023-12-20T11:40:33;8.80;97.20
674;DHT22;319;48.764;9.174;2023-12-20T11:43:03;8.80;97.20
674;DHT22;319;48.764;9.174;2023-12-20T11:45:30;8.60;96.80
674;DHT22;319;48.764;9.174;2023-12-20T11:47:58;8.60;97.20
674;DHT22;319;48.764;9.174;2023-12-20T11:50:25;8.70;97.60
674;DHT22;319;48.764;9.174;2023-12-20T11:52:53;8.80;97.10
674;DHT22;319;48.764;9.174;2023-12-20T11:55:20;8.90;96.90
674;DHT22;319;48.764;9.174;2023-12-20T11:57:48;8.90;97.20
674;DHT22;319;48.764;9.174;2023-12-20T12:00:17;8.90;97.50
674;DHT22;319;48.764;9.174;2023-12-20T12:02:55;9.00;97.40
674;DHT22;319;48.764;9.174;2023-12-20T12:05:22;8.70;96.80
674;DHT22;319;48.764;9.174;2023-12-20T12:07:48;8.70;97.30
674;DHT22;319;48.764;9.174;2023-12-20T12:10:15;8.80;97.60
674;DHT22;319;48.764;9.174;2023-12-20T12:12:42;8.90;97.40
674;DHT22;319;48.764;9.174;2023-12-20T12:15:09;8.80;97.20
674;DHT22;319;48.764;9.174;2023-12-20T12:17:37;8.80;97.30
674;DHT22;319;48.764;9.174;2023-12-20T12:20:05;8.70;97.30
674;DHT22;319;48.764;9.174;2023-12-20T12:22:33;8.80;97.50
674;DHT22;319;48.764;9.174;2023-12-20T12:25:09;9.00;97.50
674;DHT22;319;48.764;9.174;2023-12-20T12:27:36;9.10;96.90
674;DHT22;319;48.764;9.174;2023-12-20T12:30:05;9.20;97.10
674;DHT22;319;48.764;9.174;2023-12-20T12:32:33;9.20;96.50
674;DHT22;319;48.764;9.174;2023-12-20T12:35:03;9.10;96.10
674;DHT22;319;48.764;9.174;2023-12-20T12:37:29;9.20;96.20
674;DHT22;319;48.764;9.174;2023-12-20T12:39:57;9.20;96.00
674;DHT22;319;48.764;9.174;2023-12-20T12:42:23;9.10;95.90
674;DHT22;319;48.764;9.174;2023-12-20T12:44:51;9.20;96.10
674;DHT22;319;48.764;9.174;2023-12-20T12:47:18;9.20;96.00
674;DHT22;319;48.764;9.174;2023-12-20T12:49:45;9.30;96.00
674;DHT22;319;48.764;9.174;2023-12-20T12:52:13;9.20;95.70
674;DHT22;319;48.764;9.174;2023-12-20T12:54:40;9.30;95.80
674;DHT22;319;48.764;9.174;2023-12-20T12:57:08;9.40;95.60
674;DHT22;319;48.764;9.174;2023-12-20T12:59:34;9.30;95.10
674;DHT22;319;48.764;9.174;2023-12-20T13:02:01;9.30;95.70
674;DHT22;319;48.764;9.174;2023-12-20T13:04:28;9.30;95.60
674;DHT22;319;48.764;9.174;2023-12-20T13:06:55;9.30;95.50
674;DHT22;319;48.764;9.174;2023-12-20T13:09:24;9.40;95.50
674;DHT22;319;48.764;9.174;2023-12-20T13:11:50;9.30;95.40
674;DHT22;319;48.764;9.174;2023-12-20T13:14:17;9.40;95.30
674;DHT22;319;48.764;9.174;2023-12-20T13:16:44;9.40;95.30
674;DHT22;319;48.764;9.174;2023-12-20T13:19:13;9.40;95.40
674;DHT22;319;48.764;9.174;2023-12-20T13:21:40;9.50;95.60
674;DHT22;319;48.764;9.174;2023-12-20T13:24:07;9.50;95.40
674;DHT22;319;48.764;9.174;2023-12-20T13:26:35;9.60;95.40
674;DHT22;319;48.764;9.174;2023-12-20T13:29:02;9.60;95.30
674;DHT22;319;48.764;9.174;2023-12-20T13:31:28;9.50;95.30
674;DHT22;319;48.764;9.174;2023-12-20T13:33:55;9.50;95.70
674;DHT22;319;48.764;9.174;2023-12-20T13:36:22;9.60;95.70
674;DHT22;319;48.764;9.174;2023-12-20T13:38:49;9.70;95.40
674;DHT22;319;48.764;9.174;2023-12-20T13:41:15;9.70;95.20
674;DHT22;319;48.764;9.174;2023-12-20T13:43:44;9.70;94.90
674;DHT22;319;48.764;9.174;2023-12-20T13:46:11;9.70;94.80
674;DHT22;319;48.764;9.174;2023-12-20T13:48:39;9.60;94.70
674;DHT22;319;48.764;9.174;2023-12-20T13:51:07;9.40;95.00
674;DHT22;319;48.764;9.174;2023-12-20T13:53:33;9.40;95.40
674;DHT22;319;48.764;9.174;2023-12-20T13:56:00;9.40;95.60
674;DHT22;319;48.764;9.174;2023-12-20T13:58:27;9.40;95.40
674;DHT22;319;48.764;9.174;2023-12-20T14:00:55;9.40;95.50
674;DHT22;319;48.764;9.174;2023-12-20T14:03:22;9.40;95.50
674;DHT22;319;48.764;9.174;2023-12-20T14:05:48;9.20;95.70
674;DHT22;319;48.764;9.174;2023-12-20T14:08:15;9.20;95.70
674;DHT22;319;48.764;9.174;2023-12-20T14:10:42;9.20;95.80
674;DHT22;319;48.764;9.174;2023-12-20T14:13:09;9.20;96.00
674;DHT22;319;48.764;9.174;2023-12-20T14:15:37;9.10;95.90
674;DHT22;319;48.764;9.174;2023-12-20T14:18:06;9.10;96.00
674;DHT22;319;48.764;9.174;2023-12-20T14:20:34;9.10;96.20
674;DHT22;319;48.764;9.174;2023-12-20T14:23:01;9.00;96.10
674;DHT22;319;48.764;9.174;2023-12-20T14:25:27;8.90;96.40
674;DHT22;319;48.764;9.174;2023-12-20T14:27:54;8.80;96.70
674;DHT22;319;48.764;9.174;2023-12-20T14:30:21;8.90;96.90
674;DHT22;319;48.764;9.174;2023-12-20T14:32:48;8.90;96.90
674;DHT22;319;48.764;9.174;2023-12-20T14:35:16;8.90;97.10
674;DHT22;319;48.764;9.174;2023-12-20T14:37:45;8.80;97.10
674;DHT22;319;48.764;9.174;2023-12-20T14:40:12;8.70;97.80
674;DHT22;319;48.764;9.174;2023-12-20T14:42:41;8.70;98.20
674;DHT22;319;48.764;9.174;2023-12-20T14:45:09;8.60;98.60
674;DHT22;319;48.764;9.174;2023-12-20T14:47:36;8.50;98.90
674;DHT22;319;48.764;9.174;2023-12-20T14:50:03;8.30;99.30
674;DHT22;319;48.764;9.174;2023-12-20T14:52:32;8.40;99.80
674;DHT22;319;48.764;9.174;2023-12-20T14:54:59;8.40;99.90
674;DHT22;319;48.764;9.174;2023-12-20T14:57:26;8.30;99.90
674;DHT22;319;48.764;9.174;2023-12-20T14:59:54;8.30;99.90
674;DHT22;319;48.764;9.174;2023-12-20T15:02:21;8.30;99.90
674;DHT22;319;48.764;9.174;2023-12-20T15:04:48;8.20;99.90
674;DHT22;319;48.764;9.174;2023-12-20T15:07:16;8.20;99.90
674;DHT22;319;48.764;9.174;2023-12-20T15:09:44;8.30;99.90
674;DHT22;319;48.764;9.174;2023-12-20T15:12:13;8.30;99.90
674;DHT22;319;48.764;9.174;2023-12-20T15:14:40;8.20;99.90
674;DHT22;319;48.764;9.174;2023-12-20T15:17:07;8.30;99.90
674;DHT22;319;48.764;9.174;2023-12-20T15:19:34;8.30;99.90
674;DHT22;319;48.764;9.174;2023-12-20T15:22:01;8.20;99.90
674;DHT22;319;48.764;9.174;2023-12-20T15:24:29;8.20;99.90
674;DHT22;319;48.764;9.174;2023-12-20T15:27:05;8.10;99.90
674;DHT22;319;48.764;9.174;2023-12-20T15:29:32;8.00;99.90
674;DHT22;319;48.764;9.174;2023-12-20T15:31:59;8.00;99.90
674;DHT22;319;48.764;9.174;2023-12-20T15:34:25;8.00;99.90
674;DHT22;319;48.764;9.174;2023-12-20T15:36:52;8.00;99.90
674;DHT22;319;48.764;9.174;2023-12-20T15:39:19;7.90;99.90
674;DHT22;319;48.764;9.174;2023-12-20T15:41:46;7.90;99.90
674;DHT22;319;48.764;9.174;2023-12-20T15:44:14;8.00;99.90
674;DHT22;319;48.764;9.174;2023-12-20T15:46:42;8.00;99.90
674;DHT22;319;48.764;9.174;2023-12-20T15:49:09;8.00;99.90
674;DHT22;319;48.764;9.174;2023-12-20T15:51:37;8.00;99.90
674;DHT22;319;48.764;9.174;2023-12-20T15:54:06;8.00;99.90
674;DHT22;319;48.764;9.174;2023-12-20T15:56:33;8.00;99.90
674;DHT22;319;48.764;9.174;2023-12-20T15:59:06;8.00;99.90
674;DHT22;319;48.764;9.174;2023-12-20T16:01:40;7.90;99.90
674;DHT22;319;48.764;9.174;2023-12-20T16:04:07;7.80;99.90
674;DHT22;319;48.764;9.174;2023-12-20T16:06:34;7.80;99.90
674;DHT22;319;48.764;9.174;2023-12-20T16:09:06;7.80;99.90
674;DHT22;319;48.764;9.174;2023-12-20T16:11:34;7.80;99.90
674;DHT22;319;48.764;9.174;2023-12-20T16:14:01;7.80;99.90
674;DHT22;319;48.764;9.174;2023-12-20T16:16:34;7.90;99.90
674;DHT22;319;48.764;9.174;2023-12-20T16:19:07;7.80;99.90
674;DHT22;319;48.764;9.174;2023-12-20T16:21:38;7.80;99.90
674;DHT22;319;48.764;9.174;2023-12-20T16:24:10;7.90;99.90
674;DHT22;319;48.764;9.174;2023-12-20T16:26:37;7.80;99.90
674;DHT22;319;48.764;9.174;2023-12-20T16:29:04;7.90;99.90
674;DHT22;319;48.764;9.174;2023-12-20T16:31:31;7.80;99.90
674;DHT22;319;48.764;9.174;2023-12-20T16:34:01;7.90;99.90
674;DHT22;319;48.764;9.174;2023-12-20T16:36:49;7.80;99.90
674;DHT22;319;48.764;9.174;2023-12-20T16:39:18;7.80;99.90
674;DHT22;319;48.764;9.174;2023-12-20T16:41:45;7.80;99.90
674;DHT22;319;48.764;9.174;2023-12-20T16:44:12;7.80;99.90
674;DHT22;319;48.764;9.174;2023-12-20T16:46:39;7.70;99.90
674;DHT22;319;48.764;9.174;2023-12-20T16:49:08;7.70;99.90
674;DHT22;319;48.764;9.174;2023-12-20T16:51:35;7.70;99.90
674;DHT22;319;48.764;9.174;2023-12-20T16:54:02;7.60;99.90
674;DHT22;319;48.764;9.174;2023-12-20T16:56:28;7.50;99.90